Time;durP1;ratioP1;P1;durP2;ratioP2;P2;SDS_P1;SDS_P2;PMS_P1;PMS_P2;Temp;Humidity;BMP_temperature;BMP_pressure;BME280_temperature;BME280_humidity;BME280_pressure;Samples;Min_cycle;Max_cycle;Signal;HPM_P1;HPM_P2
2022/05/25 00:00:58;;;;;;;;;4.50;3.00;;;;;15.50;61.05;101102.44;5061157;28;45480;-64
2022/05/25 00:03:24;;;;;;;;;3.00;3.00;;;;;15.48;61.58;101099.03;5061086;28;45435;-63
2022/05/25 00:05:50;;;;;;;;;4.75;2.50;;;;;15.46;61.71;101098.25;5061046;28;45531;-62
2022/05/25 00:08:15;;;;;;;;;1.75;1.75;;;;;15.45;62.04;101096.53;5061333;28;45433;-62
2022/05/25 00:10:41;;;;;;;;;3.75;2.25;;;;;15.42;61.90;101090.59;5061231;28;45371;-63
2022/05/25 00:13:07;;;;;;;;;6.00;3.50;;;;;15.39;62.03;101088.91;5060904;28;46061;-64
2022/05/25 00:15:32;;;;;;;;;4.00;3.00;;;;;15.38;62.12;101095.06;5059533;28;45347;-63
2022/05/25 00:17:58;;;;;;;;;2.25;2.00;;;;;15.36;62.37;101088.19;5061189;28;45313;-64
2022/05/25 00:20:24;;;;;;;;;3.50;2.00;;;;;15.35;62.53;101084.72;5060475;28;45522;-62
2022/05/25 00:22:52;;;;;;;;;2.50;2.00;;;;;15.32;62.60;101092.72;5060563;28;46888;-64
2022/05/25 00:25:29;;;;;;;;;4.25;2.75;;;;;15.33;62.51;101088.34;5058998;28;46258;-65
2022/05/25 00:27:55;;;;;;;;;2.75;2.75;;;;;15.32;62.51;101090.09;5059533;28;45565;-64
2022/05/25 00:30:21;;;;;;;;;3.00;3.00;;;;;15.31;62.75;101096.25;5058296;28;45364;-62
2022/05/25 00:32:47;;;;;;;;;3.00;2.00;;;;;15.31;63.07;101095.41;5058826;28;45647;-61
2022/05/25 00:35:15;;;;;;;;;4.00;2.00;;;;;15.24;63.16;101088.72;5060118;28;45672;-62
2022/05/25 00:37:41;;;;;;;;;3.25;2.00;;;;;15.25;63.14;101096.53;5058036;28;45220;-61
2022/05/25 00:40:10;;;;;;;;;4.50;4.50;;;;;15.25;63.79;101100.91;5060692;28;45291;-63
2022/05/25 00:42:36;;;;;;;;;5.00;5.00;;;;;15.19;63.54;101107.22;5060470;28;47973;-61
2022/05/25 00:45:03;;;;;;;;;6.00;6.00;;;;;15.13;65.06;101104.88;5060203;28;45448;-62
2022/05/25 00:47:30;;;;;;;;;5.50;4.00;;;;;15.07;64.11;101115.59;5058197;28;45385;-63
2022/05/25 00:49:55;;;;;;;;;5.50;5.25;;;;;15.01;64.45;101113.19;5057187;28;45623;-61
2022/05/25 00:52:21;;;;;;;;;7.75;7.75;;;;;14.99;64.50;101115.03;5057950;28;45477;-62
2022/05/25 00:54:50;;;;;;;;;6.75;6.00;;;;;14.96;65.16;101118.63;5057985;28;45350;-63
2022/05/25 00:57:30;;;;;;;;;13.00;8.00;;;;;14.92;65.61;101119.66;5055813;28;45778;-62
2022/05/25 01:00:04;;;;;;;;;12.75;11.50;;;;;14.89;65.34;101119.78;5057719;28;45761;-63
2022/05/25 01:02:32;;;;;;;;;12.25;10.25;;;;;14.88;65.59;101118.94;5059891;28;45637;-63
2022/05/25 01:04:58;;;;;;;;;12.50;11.50;;;;;14.87;65.40;101124.22;5060163;28;45403;-63
2022/05/25 01:07:47;;;;;;;;;11.25;9.50;;;;;14.84;65.80;101114.72;5060302;28;45351;-63
2022/05/25 01:10:15;;;;;;;;;12.50;9.75;;;;;14.83;65.89;101120.88;5092916;27;45314;-64
2022/05/25 01:12:49;;;;;;;;;15.50;14.00;;;;;14.78;66.67;101125.41;5059854;28;45365;-64
2022/05/25 01:15:27;;;;;;;;;15.25;13.00;;;;;14.74;66.73;101129.06;5060079;28;45446;-64
2022/05/25 01:18:04;;;;;;;;;12.00;11.25;;;;;14.73;66.99;101131.75;5060380;28;45153;-64
2022/05/25 01:20:32;;;;;;;;;13.75;11.75;;;;;14.71;68.70;101133.56;5058446;28;45442;-64
2022/05/25 01:23:27;;;;;;;;;12.25;10.00;;;;;14.69;67.26;101136.25;5059820;28;46458;-63
2022/05/25 01:26:20;;;;;;;;;13.25;10.75;;;;;14.69;67.47;101135.41;5056482;28;45406;-63
2022/05/25 01:28:51;;;;;;;;;11.25;10.00;;;;;14.67;67.52;101143.31;5059846;28;45471;-64
2022/05/25 01:31:24;;;;;;;;;14.25;13.00;;;;;14.66;67.65;101131.13;5052513;28;45502;-63
2022/05/25 01:33:56;;;;;;;;;14.25;8.75;;;;;14.65;67.57;101132.06;5058929;28;45490;-64
2022/05/25 01:36:56;;;;;;;;;9.25;9.25;;;;;14.64;67.99;101132.97;5059302;28;45454;-64
2022/05/25 01:39:27;;;;;;;;;12.00;10.75;;;;;14.63;67.95;101141.72;5060037;28;45330;-64
2022/05/25 01:42:01;;;;;;;;;7.00;7.00;;;;;14.60;68.91;101142.66;5059650;28;45450;-64
2022/05/25 01:44:35;;;;;;;;;5.75;4.75;;;;;14.59;68.45;101150.56;5059348;28;46741;-64
2022/05/25 01:47:06;;;;;;;;;5.00;5.00;;;;;14.58;68.08;101154.09;5059573;28;45353;-64
2022/05/25 01:50:04;;;;;;;;;6.50;5.00;;;;;14.56;68.26;101151.53;5058693;28;45458;-63
2022/05/25 01:52:34;;;;;;;;;6.50;4.75;;;;;14.54;68.14;101150.75;5048101;28;45481;-64
2022/05/25 01:55:08;;;;;;;;;5.67;3.67;;;;;14.56;68.34;101150.69;5059373;28;46586;-64
2022/05/25 01:57:38;;;;;;;;;0.00;0.00;;;;;14.55;67.89;101152.44;5059596;28;45718;-64
2022/05/25 02:00:06;;;;;;;;;5.50;3.25;;;;;14.54;68.40;101155.97;5056112;28;45413;-64
2022/05/25 02:05:20;;;;;;;;;3.25;3.25;;;;;14.48;69.11;101156.22;5059404;28;45418;-64
2022/05/25 02:07:58;;;;;;;;;4.00;4.00;;;;;14.49;68.44;101151.84;5059143;28;45229;-64
2022/05/25 02:10:28;;;;;;;;;4.75;4.00;;;;;14.44;69.06;101151.16;5059759;28;45426;-64
2022/05/25 02:13:03;;;;;;;;;3.50;3.50;;;;;14.43;69.15;101152.94;5059162;28;45287;-64
2022/05/25 02:15:48;;;;;;;;;4.50;3.50;;;;;14.39;69.62;101153.03;5058650;28;45619;-64
2022/05/25 02:18:34;;;;;;;;;3.00;3.00;;;;;14.37;69.59;101158.31;5057395;28;45362;-64
2022/05/25 02:21:14;;;;;;;;;3.00;3.00;;;;;14.36;69.40;101164.47;5057942;28;45287;-62
2022/05/25 02:24:03;;;;;;;;;4.00;3.25;;;;;14.32;69.86;101168.97;5058897;28;45379;-62
2022/05/25 02:26:33;;;;;;;;;3.00;3.00;;;;;14.29;69.97;101174.31;5057643;28;47152;-63
2022/05/25 02:29:16;;;;;;;;;2.00;2.00;;;;;14.26;69.96;101165.72;5058456;28;45715;-63
2022/05/25 02:31:51;;;;;;;;;3.00;3.00;;;;;14.25;70.80;101172.72;5059115;28;45445;-62
2022/05/25 02:34:21;;;;;;;;;3.50;2.00;;;;;14.23;70.35;101166.69;5059271;28;45249;-62
2022/05/25 02:36:48;;;;;;;;;2.00;2.00;;;;;14.23;70.62;101165.84;5056445;28;46972;-62
2022/05/25 02:39:15;;;;;;;;;4.50;3.00;;;;;14.20;70.13;101164.16;5058882;28;45712;-62
2022/05/25 02:41:46;;;;;;;;;2.75;2.75;;;;;14.21;70.20;101176.31;5059175;28;45323;-63
2022/05/25 02:44:12;;;;;;;;;2.00;2.00;;;;;14.21;70.45;101178.94;5060721;28;45320;-63
2022/05/25 02:46:38;;;;;;;;;2.25;2.00;;;;;14.22;70.80;101187.66;5060920;28;47761;-63
2022/05/25 02:49:03;;;;;;;;;2.25;2.25;;;;;14.20;70.85;101185.06;5062357;28;45232;-63
2022/05/25 02:51:29;;;;;;;;;2.00;2.00;;;;;14.18;70.92;101188.66;5061418;28;45223;-63
2022/05/25 02:53:54;;;;;;;;;2.00;2.00;;;;;14.15;70.81;101192.22;5062349;28;45295;-63
2022/05/25 02:56:19;;;;;;;;;2.00;2.00;;;;;14.11;70.89;101188.03;5062136;28;45351;-63
2022/05/25 02:58:45;;;;;;;;;2.75;2.00;;;;;14.08;71.12;101189.91;5062455;28;45294;-63
2022/05/25 03:01:10;;;;;;;;;1.00;1.00;;;;;14.07;70.96;101199.50;5062115;28;45241;-63
2022/05/25 03:03:37;;;;;;;;;2.00;2.00;;;;;14.05;71.45;101192.63;5060142;28;45463;-63
2022/05/25 03:06:07;;;;;;;;;2.00;2.00;;;;;14.01;71.44;101202.28;5061714;28;46554;-63
2022/05/25 03:08:33;;;;;;;;;2.00;2.00;;;;;14.01;71.38;101194.47;5058673;28;45666;-64
2022/05/25 03:10:58;;;;;;;;;2.00;1.50;;;;;14.00;71.72;101203.19;5060273;28;45317;-64
2022/05/25 03:13:24;;;;;;;;;4.75;2.75;;;;;14.00;71.65;101204.06;5062197;28;45213;-64
2022/05/25 03:15:49;;;;;;;;;2.00;1.00;;;;;13.99;72.11;101206.72;5061548;28;46426;-64
2022/05/25 03:18:15;;;;;;;;;3.00;3.00;;;;;13.98;71.95;101215.47;5061019;28;45413;-64
2022/05/25 03:20:40;;;;;;;;;4.00;2.75;;;;;13.96;72.00;101212.06;5059054;28;45316;-64
2022/05/25 03:23:06;;;;;;;;;1.75;1.00;;;;;13.96;72.21;101219.91;5059629;28;45716;-64
2022/05/25 03:25:31;;;;;;;;;4.50;2.00;;;;;13.94;72.37;101217.34;5059252;28;46405;-64
2022/05/25 03:27:57;;;;;;;;;4.00;2.25;;;;;13.96;73.40;101222.50;5059598;28;45457;-64
2022/05/25 03:30:22;;;;;;;;;3.00;2.00;;;;;13.96;72.30;101232.97;5059387;28;45561;-65
2022/05/25 03:32:48;;;;;;;;;4.00;3.00;;;;;13.92;72.63;101234.84;5058629;28;45453;-64
2022/05/25 03:35:15;;;;;;;;;3.25;3.25;;;;;13.92;72.52;101237.44;5059065;28;46316;-63
2022/05/25 03:37:40;;;;;;;;;4.00;2.75;;;;;13.88;73.12;101232.38;5061526;28;45343;-64
2022/05/25 03:40:10;;;;;;;;;3.25;3.25;;;;;13.89;74.08;101239.31;5061703;28;45494;-64
2022/05/25 03:42:37;;;;;;;;;5.00;3.25;;;;;13.84;73.35;101244.69;5061524;28;45477;-65
2022/05/25 03:45:04;;;;;;;;;4.50;3.00;;;;;13.84;73.27;101244.69;5059115;28;46524;-65
2022/05/25 03:47:31;;;;;;;;;3.00;3.00;;;;;13.82;73.57;101250.88;5058477;28;45385;-65
2022/05/25 03:49:56;;;;;;;;;2.50;2.50;;;;;13.84;73.72;101262.97;5060982;28;45411;-65
2022/05/25 03:52:23;;;;;;;;;4.25;3.50;;;;;13.87;73.82;101262.88;5061483;28;45380;-65
2022/05/25 03:54:48;;;;;;;;;3.00;3.00;;;;;13.89;74.17;101266.28;5060821;28;46223;-65
2022/05/25 03:57:14;;;;;;;;;4.75;4.75;;;;;13.93;74.03;101269.66;5061368;28;45437;-65
2022/05/25 03:59:39;;;;;;;;;4.75;4.00;;;;;13.91;74.15;101267.09;5061197;28;45602;-64
2022/05/25 04:02:04;;;;;;;;;4.00;3.50;;;;;13.92;73.86;101268.81;5061513;28;45331;-65
2022/05/25 04:04:30;;;;;;;;;3.00;3.00;;;;;13.93;73.82;101269.66;5060916;28;46496;-65
2022/05/25 04:06:55;;;;;;;;;4.00;4.00;;;;;13.91;74.27;101276.69;5061177;28;45305;-65
2022/05/25 04:09:20;;;;;;;;;4.75;3.75;;;;;13.89;74.14;101276.75;5061108;28;45292;-65
2022/05/25 04:11:47;;;;;;;;;3.00;3.00;;;;;13.88;74.07;101272.41;5060831;28;45240;-65
2022/05/25 04:14:15;;;;;;;;;4.50;3.25;;;;;13.90;74.49;101274.97;5060638;28;46564;-65
2022/05/25 04:16:44;;;;;;;;;4.25;4.00;;;;;13.91;73.75;101264.47;5055073;28;45443;-65
2022/05/25 04:19:09;;;;;;;;;4.00;4.00;;;;;13.92;73.76;101268.81;5074876;28;45529;-64
2022/05/25 04:21:35;;;;;;;;;4.75;4.75;;;;;13.95;73.82;101275.69;5060714;28;45162;-65
2022/05/25 04:24:01;;;;;;;;;4.50;3.25;;;;;13.93;75.66;101269.66;5060724;28;46307;-65
2022/05/25 04:26:30;;;;;;;;;8.75;4.25;;;;;13.88;74.99;101282.03;5060842;28;45309;-65
2022/05/25 04:28:56;;;;;;;;;3.75;2.25;;;;;13.87;74.88;101282.94;5060349;28;45454;-65
2022/05/25 04:31:21;;;;;;;;;4.00;4.00;;;;;13.87;74.55;101290.75;5060923;28;45544;-64
2022/05/25 04:33:47;;;;;;;;;3.25;3.00;;;;;13.88;74.80;101284.63;5060494;28;46326;-64
2022/05/25 04:36:12;;;;;;;;;5.00;5.00;;;;;13.91;74.46;101288.00;5060106;28;45351;-66
2022/05/25 04:38:37;;;;;;;;;5.00;5.00;;;;;13.93;74.46;101285.34;5060649;28;45341;-65
2022/05/25 04:41:03;;;;;;;;;6.00;4.50;;;;;13.95;73.95;101292.22;5059444;28;45322;-64
2022/05/25 04:43:28;;;;;;;;;2.50;2.50;;;;;14.00;74.19;101297.28;5059730;28;45354;-64
2022/05/25 04:45:55;;;;;;;;;4.25;4.00;;;;;14.02;75.56;101302.50;5059550;28;45812;-63
2022/05/25 04:48:23;;;;;;;;;7.00;4.00;;;;;14.05;74.84;101302.38;5056837;28;45628;-65
2022/05/25 04:50:50;;;;;;;;;4.00;4.00;;;;;14.04;74.51;101303.28;5059359;28;45307;-64
2022/05/25 04:53:18;;;;;;;;;4.25;4.25;;;;;14.10;74.69;101306.53;5060172;28;45373;-65
2022/05/25 04:58:40;;;;;;;;;9.25;5.75;;;;;14.20;74.18;101321.00;5059886;28;45393;-63
2022/05/25 05:01:08;;;;;;;;;8.00;6.50;;;;;14.25;74.01;101323.50;5059921;28;45227;-63
2022/05/25 05:03:34;;;;;;;;;0.00;0.00;;;;;14.30;74.19;101314.56;5059947;28;46194;-62
2022/05/25 05:06:00;;;;;;;;;5.75;5.50;;;;;14.35;73.85;101326.63;5058687;28;45915;-63
2022/05/25 05:08:26;;;;;;;;;6.25;6.00;;;;;14.40;73.83;101327.31;5060075;28;45344;-62
2022/05/25 05:10:52;;;;;;;;;7.00;7.00;;;;;14.38;73.70;101319.53;5059757;28;45414;-62
2022/05/25 05:13:18;;;;;;;;;7.00;6.00;;;;;14.39;73.63;101331.69;5059760;28;45308;-64
2022/05/25 05:15:48;;;;;;;;;10.00;6.00;;;;;14.43;73.55;101327.25;5057276;28;45858;-62
2022/05/25 05:18:15;;;;;;;;;14.25;10.75;;;;;14.45;73.25;101335.94;5058553;28;45445;-63
2022/05/25 05:20:40;;;;;;;;;10.50;8.75;;;;;14.42;73.36;101338.63;5058227;28;45527;-63
2022/05/25 05:23:06;;;;;;;;;11.50;7.50;;;;;14.46;73.36;101348.94;5057989;28;45659;-63
2022/05/25 05:25:33;;;;;;;;;14.25;9.50;;;;;14.48;73.48;101348.91;5059151;28;45599;-63
2022/05/25 05:28:06;;;;;;;;;22.25;16.00;;;;;14.52;73.25;101338.25;5059560;28;45323;-63
2022/05/25 05:30:34;;;;;;;;;11.75;11.25;;;;;14.59;72.98;101349.38;5058900;28;45584;-63
2022/05/25 05:33:00;;;;;;;;;11.50;7.00;;;;;14.60;72.71;101343.22;5059222;28;46215;-63
2022/05/25 05:35:28;;;;;;;;;13.00;11.00;;;;;14.64;72.91;101334.38;5058891;28;45307;-63
2022/05/25 05:37:55;;;;;;;;;11.00;10.50;;;;;14.69;72.63;101329.84;5059499;28;45341;-63
2022/05/25 05:40:22;;;;;;;;;10.25;8.00;;;;;14.73;72.58;101318.34;5059240;28;45332;-63
2022/05/25 05:42:51;;;;;;;;;9.25;7.00;;;;;14.82;72.03;101325.03;5059116;28;45414;-63
2022/05/25 05:45:21;;;;;;;;;7.00;5.25;;;;;14.83;71.69;101331.97;5058576;28;45957;-63
2022/05/25 05:47:52;;;;;;;;;12.00;7.75;;;;;14.87;71.23;101329.19;5057764;28;45458;-63
2022/05/25 05:50:20;;;;;;;;;7.50;7.00;;;;;14.96;71.26;101319.28;5057688;28;45343;-63
2022/05/25 05:52:47;;;;;;;;;7.25;6.00;;;;;15.07;71.30;101325.00;5058770;28;45627;-63
2022/05/25 05:55:13;;;;;;;;;7.50;7.50;;;;;15.15;70.96;101330.78;5055829;28;45260;-64
2022/05/25 05:57:39;;;;;;;;;7.00;5.50;;;;;15.21;70.47;101320.09;5057807;28;45209;-64
2022/05/25 06:00:06;;;;;;;;;5.00;5.00;;;;;15.32;70.11;101328.41;5058961;28;45565;-63
2022/05/25 06:02:32;;;;;;;;;13.75;7.25;;;;;15.37;70.16;101323.00;5059248;28;46655;-63
2022/05/25 06:04:57;;;;;;;;;6.00;6.00;;;;;15.44;69.49;101329.72;5059081;28;45243;-64
2022/05/25 06:07:22;;;;;;;;;9.25;7.50;;;;;15.49;69.01;101341.72;5058802;28;45363;-64
2022/05/25 06:09:48;;;;;;;;;6.50;6.50;;;;;15.52;69.01;101343.38;5058511;28;45414;-64
2022/05/25 06:12:14;;;;;;;;;6.00;6.00;;;;;15.50;68.92;101343.44;5056905;28;45523;-64
2022/05/25 06:14:40;;;;;;;;;5.50;5.50;;;;;15.57;68.65;101361.53;5074222;28;45246;-64
2022/05/25 06:19:50;;;;;;;;;5.25;4.50;;;;;15.68;68.17;101365.47;5060234;28;45395;-63
2022/05/25 06:22:18;;;;;;;;;4.00;4.00;;;;;15.78;67.58;101373.81;5061943;28;45414;-63
2022/05/25 06:24:48;;;;;;;;;5.00;4.50;;;;;15.78;67.11;101369.44;5062589;28;45284;-63
2022/05/25 06:27:14;;;;;;;;;6.00;5.50;;;;;15.77;67.02;101372.13;5062381;27;45302;-63
2022/05/25 06:29:43;;;;;;;;;4.25;4.00;;;;;15.74;66.96;101374.88;5062072;28;45508;-71
2022/05/25 06:32:10;;;;;;;;;7.75;5.75;;;;;15.76;66.70;101381.75;5061941;28;45295;-66
2022/05/25 06:34:37;;;;;;;;;7.00;5.50;;;;;15.78;66.45;101381.69;5059846;28;46002;-62
2022/05/25 06:37:03;;;;;;;;;6.00;5.00;;;;;15.86;65.83;101370.94;5059529;28;45281;-65
2022/05/25 06:39:35;;;;;;;;;5.00;3.25;;;;;15.97;65.40;101390.53;5058556;28;45689;-65
2022/05/25 06:42:00;;;;;;;;;5.00;4.00;;;;;15.97;64.21;101389.69;5092539;27;47060;-65
2022/05/25 06:44:25;;;;;;;;;3.75;2.25;;;;;16.00;63.87;101406.16;5060115;28;45450;-64
2022/05/25 06:46:51;;;;;;;;;2.75;2.00;;;;;15.98;62.15;101397.50;5058598;28;45387;-64
2022/05/25 06:49:17;;;;;;;;;2.50;2.50;;;;;15.98;61.88;101413.22;5060070;28;45363;-63
2022/05/25 06:51:43;;;;;;;;;2.25;2.00;;;;;15.91;61.65;101396.03;5056536;28;47553;-63
2022/05/25 06:54:08;;;;;;;;;3.25;3.25;;;;;15.87;62.70;101398.84;5059976;28;45853;-64
2022/05/25 06:56:34;;;;;;;;;5.50;4.00;;;;;15.94;62.14;101406.41;5058167;28;45725;-65
2022/05/25 06:59:00;;;;;;;;;4.00;4.00;;;;;15.99;62.44;101409.69;5057435;28;45501;-64
2022/05/25 07:01:26;;;;;;;;;3.00;2.75;;;;;16.12;62.00;101413.53;5059666;28;47081;-65
2022/05/25 07:03:52;;;;;;;;;4.75;3.25;;;;;16.22;61.98;101415.78;5060715;28;45382;-64
2022/05/25 07:06:19;;;;;;;;;3.00;2.50;;;;;16.33;61.46;101413.59;5060316;28;45319;-65
2022/05/25 07:08:45;;;;;;;;;4.00;3.50;;;;;16.47;61.40;101411.28;5058870;28;45159;-64
2022/05/25 07:11:11;;;;;;;;;7.00;3.50;;;;;16.59;60.98;101412.50;5056601;28;46498;-62
2022/05/25 07:13:37;;;;;;;;;4.00;3.50;;;;;16.66;60.23;101416.59;5059278;28;45709;-63
2022/05/25 07:16:06;;;;;;;;;3.00;3.00;;;;;16.76;60.27;101411.84;5059997;28;45405;-63
2022/05/25 07:18:32;;;;;;;;;2.25;2.25;;;;;16.85;59.24;101425.44;5058290;28;45440;-63
2022/05/25 07:21:07;;;;;;;;;3.25;3.25;;;;;16.94;59.73;101435.53;5055894;28;47089;-63
2022/05/25 07:23:36;;;;;;;;;3.00;3.00;;;;;17.02;59.24;101437.84;5060234;28;45332;-63
2022/05/25 07:26:03;;;;;;;;;1.75;1.75;;;;;17.07;58.97;101438.50;5060508;28;45308;-64
2022/05/25 07:28:28;;;;;;;;;3.00;2.00;;;;;17.11;56.11;101450.59;5059364;28;45438;-64
2022/05/25 07:31:01;;;;;;;;;3.00;1.50;;;;;17.08;56.33;101448.09;5059391;28;46032;-63
2022/05/25 07:33:28;;;;;;;;;3.00;2.00;;;;;17.07;56.85;101441.13;5058063;28;45474;-63
2022/05/25 07:35:53;;;;;;;;;1.25;1.25;;;;;17.23;56.20;101450.06;5059647;28;45488;-63
2022/05/25 07:38:19;;;;;;;;;6.00;3.50;;;;;17.41;56.17;101456.25;5058000;28;45440;-63
2022/05/25 07:40:45;;;;;;;;;2.25;2.00;;;;;17.49;54.95;101443.63;5057455;28;45610;-63
2022/05/25 07:43:17;;;;;;;;;4.00;2.75;;;;;17.50;54.21;101449.75;5057566;28;45856;-63
2022/05/25 07:45:45;;;;;;;;;2.00;2.00;;;;;17.63;55.25;101445.66;5057458;28;45234;-63
2022/05/25 07:48:11;;;;;;;;;2.50;1.25;;;;;17.74;54.74;101448.66;5058177;28;45392;-63
2022/05/25 07:50:37;;;;;;;;;3.00;1.25;;;;;17.83;53.73;101458.78;5058761;28;46584;-63
2022/05/25 07:53:55;;;;;;;;;4.75;3.00;;;;;17.89;54.78;101452.38;5058663;28;45276;-63
2022/05/25 07:55:51;;;;;;;;;9.00;7.25;;;;;18.04;54.48;101448.16;5056523;28;45446;-63
2022/05/25 07:58:17;;;;;;;;;1.00;1.00;;;;;18.14;53.81;101452.06;5058554;28;45541;-65
2022/05/25 08:00:42;;;;;;;;;3.00;1.25;;;;;18.23;53.68;101463.00;5056795;28;46992;-63
2022/05/25 08:05:54;;;;;;;;;3.25;2.75;;;;;18.31;51.71;101456.50;5057063;28;45432;-64
2022/05/25 08:08:25;;;;;;;;;1.00;1.00;;;;;18.29;51.42;101453.09;5057148;28;45645;-63
2022/05/25 08:11:04;;;;;;;;;2.50;2.00;;;;;18.24;50.86;101461.22;5056806;28;45344;-63
2022/05/25 08:13:33;;;;;;;;;3.50;2.00;;;;;18.21;51.16;101463.97;5059600;28;45505;-63
2022/05/25 08:15:59;;;;;;;;;6.50;5.00;;;;;18.11;51.07;101458.31;5059521;28;45436;-63
2022/05/25 08:18:24;;;;;;;;;3.50;3.50;;;;;18.07;50.08;101453.28;5057966;28;45613;-63
2022/05/25 08:20:49;;;;;;;;;4.75;4.75;;;;;18.09;51.55;101459.31;5055893;28;46400;-64
2022/05/25 08:23:16;;;;;;;;;1.00;1.00;;;;;18.20;50.36;101463.13;5056949;28;45358;-63
2022/05/25 08:25:42;;;;;;;;;2.50;1.00;;;;;18.17;49.97;101454.53;5058468;28;45300;-65
2022/05/25 08:28:08;;;;;;;;;1.00;1.00;;;;;18.21;49.32;101453.47;5057248;28;45347;-65
2022/05/25 08:30:36;;;;;;;;;3.25;1.50;;;;;18.28;48.58;101456.66;5053075;28;45541;-65
2022/05/25 08:33:02;;;;;;;;;3.00;2.00;;;;;18.34;48.20;101464.25;5058757;28;45311;-64
2022/05/25 08:35:27;;;;;;;;;4.00;2.25;;;;;18.40;47.49;101456.91;5056785;28;45675;-65
2022/05/25 08:37:57;;;;;;;;;2.00;0.00;;;;;18.42;44.53;101457.72;5054556;28;45447;-65
2022/05/25 08:40:24;;;;;;;;;1.25;1.25;;;;;18.31;43.27;101470.53;5056040;28;45373;-65
2022/05/25 08:42:52;;;;;;;;;7.00;7.00;;;;;18.27;44.86;101468.97;5057800;28;45805;-64
2022/05/25 08:45:20;;;;;;;;;2.00;2.00;;;;;18.34;45.10;101465.09;5058387;28;45672;-62
2022/05/25 08:47:50;;;;;;;;;2.75;0.75;;;;;18.45;44.48;101473.34;5058286;28;45261;-63
2022/05/25 08:50:16;;;;;;;;;0.00;0.00;;;;;18.57;43.68;101466.63;5057353;28;46005;-62
2022/05/25 08:52:44;;;;;;;;;1.50;0.25;;;;;18.61;43.53;101470.78;5058441;28;45332;-64
2022/05/25 08:55:16;;;;;;;;;2.00;2.00;;;;;18.68;43.31;101468.78;5056822;28;45336;-60
2022/05/25 08:57:48;;;;;;;;;1.00;1.00;;;;;18.73;44.00;101485.19;5056281;28;45440;-61
2022/05/25 09:00:17;;;;;;;;;1.50;0.75;;;;;18.73;42.96;101469.38;5057682;28;46886;-61
2022/05/25 09:02:51;;;;;;;;;0.00;0.00;;;;;18.82;43.21;101472.44;5056009;28;45358;-62
2022/05/25 09:05:34;;;;;;;;;5.50;5.50;;;;;18.83;42.32;101481.19;5058588;28;45457;-63
2022/05/25 09:08:13;;;;;;;;;2.00;2.00;;;;;18.86;43.15;101480.16;5057172;28;45415;-63
2022/05/25 09:10:48;;;;;;;;;2.00;1.00;;;;;18.90;42.46;101485.19;5057624;28;45354;-63
2022/05/25 09:13:25;;;;;;;;;0.00;0.00;;;;;18.96;42.23;101478.75;5058764;28;45663;-63
2022/05/25 09:18:44;;;;;;;;;2.50;1.00;;;;;19.04;42.53;101497.69;5054864;28;45426;-64
2022/05/25 09:21:10;;;;;;;;;0.50;0.50;;;;;19.01;42.25;101488.13;5058408;28;46409;-62
2022/05/25 09:23:37;;;;;;;;;3.00;1.00;;;;;19.04;42.54;101477.47;5057275;28;45802;-63
2022/05/25 09:26:02;;;;;;;;;1.75;0.75;;;;;19.15;43.11;101480.38;5057248;28;45345;-63
2022/05/25 09:28:32;;;;;;;;;0.00;0.00;;;;;19.23;43.64;101479.16;5058393;28;45323;-64
2022/05/25 09:31:02;;;;;;;;;0.50;0.50;;;;;19.34;42.21;101474.16;5056025;28;45558;-66
2022/05/25 09:33:30;;;;;;;;;5.50;1.25;;;;;19.28;41.13;101477.13;5056521;28;45848;-64
2022/05/25 09:36:01;;;;;;;;;0.50;0.50;;;;;19.24;42.73;101467.69;5054721;28;45361;-63
2022/05/25 09:38:32;;;;;;;;;2.00;2.00;;;;;19.31;43.43;101476.97;5090967;27;45497;-64
2022/05/25 09:41:05;;;;;;;;;6.00;3.00;;;;;19.40;41.75;101479.09;5058047;28;45525;-64
2022/05/25 09:43:31;;;;;;;;;1.50;0.00;;;;;19.39;41.27;101469.50;5055441;28;45477;-65
2022/05/25 09:46:05;;;;;;;;;3.75;2.00;;;;;19.42;41.04;101469.31;5057896;28;45480;-64
2022/05/25 09:48:35;;;;;;;;;3.25;3.00;;;;;19.52;41.47;101478.47;5057976;28;45512;-64
2022/05/25 09:51:30;;;;;;;;;1.00;1.00;;;;;19.53;40.64;101485.44;5056809;28;46263;-65
2022/05/25 09:54:04;;;;;;;;;0.75;0.75;;;;;19.55;41.91;101485.38;5054859;28;45468;-63
2022/05/25 09:56:44;;;;;;;;;2.00;2.00;;;;;19.67;42.00;101482.09;5057951;28;45410;-64
2022/05/25 09:59:47;;;;;;;;;2.00;2.00;;;;;19.70;41.72;101490.72;5056577;28;45402;-64
2022/05/25 10:02:27;;;;;;;;;3.75;3.75;;;;;19.76;40.97;101481.59;5035142;28;46692;-66
2022/05/25 10:04:56;;;;;;;;;3.00;2.00;;;;;19.80;41.25;101492.84;5056610;28;45654;-68
2022/05/25 10:07:32;;;;;;;;;3.00;3.00;;;;;19.78;40.49;101490.28;5057621;28;45212;-65
2022/05/25 10:10:09;;;;;;;;;3.75;0.75;;;;;19.73;40.70;101487.06;5058009;28;45158;-63
2022/05/25 10:12:41;;;;;;;;;1.25;1.25;;;;;19.69;40.73;101488.16;5058574;28;45526;-67
2022/05/25 10:15:14;;;;;;;;;0.00;0.00;;;;;19.65;39.34;101491.91;5058172;28;45304;-61
2022/05/25 10:17:42;;;;;;;;;4.50;2.75;;;;;19.59;40.32;101495.69;5058809;28;45255;-62
2022/05/25 10:20:43;;;;;;;;;1.00;1.00;;;;;19.66;40.26;101496.22;5058588;28;45481;-62
2022/05/25 10:23:27;;;;;;;;;2.50;1.75;;;;;19.83;40.64;101498.81;5058609;28;48281;-65
2022/05/25 10:25:55;;;;;;;;;0.00;0.00;;;;;19.98;40.37;101487.41;5058294;28;45529;-62
2022/05/25 10:28:22;;;;;;;;;0.00;0.00;;;;;20.05;39.96;101488.81;5058027;28;45348;-62
2022/05/25 10:36:58;;;;;;;;;1.25;1.25;;;;;20.26;40.38;101493.81;5057632;28;45441;-65
2022/05/25 10:39:29;;;;;;;;;1.00;1.00;;;;;20.31;39.82;101499.69;5058736;28;45334;-61
2022/05/25 10:42:04;;;;;;;;;2.75;2.00;;;;;20.33;39.58;101482.81;5056479;28;45599;-63
2022/05/25 10:44:36;;;;;;;;;1.00;1.00;;;;;20.42;39.66;101489.38;5058418;28;46203;-63
2022/05/25 10:47:01;;;;;;;;;1.00;1.00;;;;;20.51;39.43;101488.03;5058443;28;45282;-61
2022/05/25 10:49:35;;;;;;;;;1.75;0.75;;;;;20.62;39.95;101478.56;5058167;28;45498;-62
2022/05/25 10:52:08;;;;;;;;;0.50;0.50;;;;;20.68;39.03;101480.00;5057382;28;45306;-61
2022/05/25 10:54:53;;;;;;;;;0.75;0.75;;;;;20.67;38.93;101485.38;5045544;28;46222;-62
2022/05/25 10:57:59;;;;;;;;;2.75;1.25;;;;;20.68;38.89;101487.91;5058241;28;45750;-62
2022/05/25 11:00:52;;;;;;;;;1.50;0.00;;;;;20.67;37.70;101486.22;5049030;28;45476;-62
2022/05/25 11:03:20;;;;;;;;;0.50;0.50;;;;;20.70;37.19;101488.69;5057320;28;45162;-63
2022/05/25 11:05:52;;;;;;;;;0.00;0.00;;;;;20.69;37.74;101496.69;5060936;28;45509;-62
2022/05/25 11:08:27;;;;;;;;;3.00;1.75;;;;;20.74;36.74;101492.00;5060235;28;45678;-62
2022/05/25 11:10:55;;;;;;;;;1.00;1.00;;;;;20.82;37.44;101493.25;5061858;28;45494;-62
2022/05/25 11:13:29;;;;;;;;;1.00;1.00;;;;;20.95;37.39;101496.03;5062042;28;45468;-63
2022/05/25 11:16:23;;;;;;;;;0.75;0.75;;;;;21.00;37.12;101499.22;5060271;28;47183;-63
2022/05/25 11:19:31;;;;;;;;;0.50;0.00;;;;;21.01;36.51;101506.22;5061420;28;45603;-62
2022/05/25 11:22:27;;;;;;;;;1.00;1.00;;;;;21.07;36.91;101489.16;5061482;28;45469;-62
2022/05/25 11:25:24;;;;;;;;;1.75;1.75;;;;;21.19;37.10;101488.41;5061280;28;45277;-61
2022/05/25 11:28:15;;;;;;;;;1.00;1.00;;;;;21.24;37.48;101492.53;5060117;28;47278;-62
2022/05/25 11:30:45;;;;;;;;;1.75;1.00;;;;;21.37;37.43;101487.34;5059819;28;45340;-62
2022/05/25 11:33:10;;;;;;;;;1.50;0.75;;;;;21.52;36.82;101489.06;5061556;28;45228;-62
2022/05/25 11:35:44;;;;;;;;;0.75;0.75;;;;;21.65;36.14;101475.09;5059819;28;45549;-62
2022/05/25 11:38:32;;;;;;;;;1.00;0.75;;;;;21.77;36.12;101488.38;5061250;28;45174;-63
2022/05/25 11:41:30;;;;;;;;;0.25;0.00;;;;;21.84;35.96;101486.22;5060288;28;45455;-62
2022/05/25 11:44:25;;;;;;;;;3.00;0.00;;;;;21.86;36.06;101473.75;5045094;28;45518;-62
2022/05/25 11:46:51;;;;;;;;;1.50;1.00;;;;;21.88;36.46;101484.25;5060085;28;45408;-64
2022/05/25 11:49:35;;;;;;;;;5.00;5.00;;;;;21.93;36.29;101485.63;5061696;28;46427;-65
2022/05/25 11:52:27;;;;;;;;;1.00;1.00;;;;;22.03;36.13;101492.06;5061180;28;45363;-66
2022/05/25 11:55:02;;;;;;;;;1.00;1.00;;;;;22.01;35.82;101483.34;5061518;28;45145;-63
2022/05/25 11:57:30;;;;;;;;;2.00;0.25;;;;;22.04;36.23;101488.50;5061357;28;45295;-63
2022/05/25 12:00:21;;;;;;;;;2.00;1.00;;;;;22.25;35.96;101480.97;5059052;28;46329;-63